createdAt,value
2022-07-28T00:00:39.091Z,1014.54
2022-07-28T00:01:39.160Z,1014.56
2022-07-28T00:02:39.127Z,1014.55
2022-07-28T00:03:39.080Z,1014.58
2022-07-28T00:04:39.081Z,1014.60
2022-07-28T00:05:39.105Z,1014.54
2022-07-28T00:06:39.085Z,1014.56
2022-07-28T00:07:39.112Z,1014.55
2022-07-28T00:08:39.090Z,1014.54
2022-07-28T00:09:39.096Z,1014.56
2022-07-28T00:10:39.113Z,1014.56
2022-07-28T00:11:51.987Z,1014.54
2022-07-28T00:12:39.114Z,1014.54
2022-07-28T00:13:39.104Z,1014.53
2022-07-28T00:14:39.111Z,1014.58
2022-07-28T00:15:39.098Z,1014.55
2022-07-28T00:16:39.168Z,1014.56
2022-07-28T00:17:39.103Z,1014.58
2022-07-28T00:18:39.114Z,1014.58
2022-07-28T00:19:39.131Z,1014.55
2022-07-28T00:20:39.118Z,1014.56
2022-07-28T00:21:39.114Z,1014.57
2022-07-28T00:22:39.116Z,1014.58
2022-07-28T00:23:39.876Z,1014.56
2022-07-28T00:24:39.135Z,1014.55
2022-07-28T00:25:39.122Z,1014.58
2022-07-28T00:26:39.131Z,1014.55
2022-07-28T00:27:39.156Z,1014.54
2022-07-28T00:28:39.126Z,1014.63
2022-07-28T00:29:49.244Z,1014.55
2022-07-28T00:30:39.129Z,1014.56
2022-07-28T00:31:39.203Z,1014.60
2022-07-28T00:32:39.168Z,1014.58
2022-07-28T00:33:39.153Z,1014.55
2022-07-28T00:34:39.150Z,1014.59
2022-07-28T00:35:39.161Z,1014.58
2022-07-28T00:36:39.142Z,1014.60
2022-07-28T00:37:39.971Z,1014.59
2022-07-28T00:38:40.783Z,1014.60
2022-07-28T00:39:39.157Z,1014.62
2022-07-28T00:40:39.179Z,1014.58
2022-07-28T00:41:39.159Z,1014.59
2022-07-28T00:42:39.157Z,1014.62
2022-07-28T00:43:39.178Z,1014.61
2022-07-28T00:44:39.213Z,1014.62
2022-07-28T00:45:39.186Z,1014.60
2022-07-28T00:46:39.266Z,1014.59
2022-07-28T00:47:39.161Z,1014.59
2022-07-28T00:48:39.278Z,1014.58
2022-07-28T00:49:39.167Z,1014.59
2022-07-28T00:50:39.166Z,1014.54
2022-07-28T00:51:39.191Z,1014.55
2022-07-28T00:52:39.176Z,1014.59
2022-07-28T00:53:39.172Z,1014.59
2022-07-28T00:54:39.192Z,1014.52
2022-07-28T00:56:03.344Z,1014.57
2022-07-28T00:56:39.194Z,1014.57
2022-07-28T00:57:39.190Z,1014.57
2022-07-28T00:58:39.190Z,1014.56
2022-07-28T00:59:39.185Z,1014.59
2022-07-28T01:00:39.207Z,1014.58
2022-07-28T01:01:39.430Z,1014.57
2022-07-28T01:02:39.264Z,1014.54
2022-07-28T01:03:39.217Z,1014.59
2022-07-28T01:04:39.188Z,1014.56
2022-07-28T01:05:43.330Z,1014.55
2022-07-28T01:06:39.192Z,1014.58
2022-07-28T01:07:39.203Z,1014.55
2022-07-28T01:08:39.195Z,1014.60
2022-07-28T01:09:39.235Z,1014.62
2022-07-28T01:10:39.211Z,1014.66
2022-07-28T01:11:42.794Z,1014.66
2022-07-28T01:12:39.211Z,1014.61
2022-07-28T01:13:39.236Z,1014.60
2022-07-28T01:14:39.209Z,1014.61
2022-07-28T01:15:39.266Z,1014.64
2022-07-28T01:16:39.219Z,1014.63
2022-07-28T01:17:39.207Z,1014.62
2022-07-28T01:18:39.216Z,1014.65
2022-07-28T01:19:39.209Z,1014.63
2022-07-28T01:20:39.204Z,1014.65
2022-07-28T01:21:39.218Z,1014.60
2022-07-28T01:22:39.206Z,1014.61
2022-07-28T01:23:39.239Z,1014.63
2022-07-28T01:24:39.220Z,1014.60
2022-07-28T01:25:39.216Z,1014.59
2022-07-28T01:26:39.226Z,1014.58
2022-07-28T01:27:39.215Z,1014.64
2022-07-28T01:28:39.226Z,1014.59
2022-07-28T01:29:39.260Z,1014.59
2022-07-28T01:30:39.222Z,1014.62
2022-07-28T01:31:39.286Z,1014.59
2022-07-28T01:32:39.238Z,1014.62
2022-07-28T01:33:39.224Z,1014.62
2022-07-28T01:34:39.244Z,1014.59
2022-07-28T01:37:10.802Z,1014.58
2022-07-28T01:38:10.793Z,1014.57
2022-07-28T01:39:10.804Z,1014.61
2022-07-28T01:40:10.802Z,1014.61
2022-07-28T01:41:10.792Z,1014.63
2022-07-28T01:42:10.792Z,1014.65
2022-07-28T01:43:13.206Z,1014.65
2022-07-28T01:44:11.097Z,1014.66
2022-07-28T01:45:10.794Z,1014.65
2022-07-28T01:46:10.847Z,1014.63
2022-07-28T01:47:10.813Z,1014.63
2022-07-28T01:48:10.839Z,1014.65
2022-07-28T01:49:10.914Z,1014.67
2022-07-28T01:50:10.839Z,1014.67
2022-07-28T01:51:10.809Z,1014.71
2022-07-28T01:52:10.814Z,1014.64
2022-07-28T01:53:10.832Z,1014.67
2022-07-28T01:54:11.136Z,1014.63
2022-07-28T01:55:10.827Z,1014.60
2022-07-28T01:56:10.820Z,1014.60
2022-07-28T01:57:10.818Z,1014.58
2022-07-28T01:58:10.827Z,1014.58
2022-07-28T01:59:10.839Z,1014.51
2022-07-28T02:00:10.841Z,1014.54
2022-07-28T02:01:10.882Z,1014.55
2022-07-28T02:02:10.833Z,1014.57
2022-07-28T02:03:10.855Z,1014.60
2022-07-28T02:04:11.209Z,1014.60
2022-07-28T02:05:10.926Z,1014.55
2022-07-28T02:06:10.843Z,1014.54
2022-07-28T02:07:10.844Z,1014.55
2022-07-28T02:08:10.843Z,1014.51
2022-07-28T02:09:10.847Z,1014.56
2022-07-28T02:10:10.855Z,1014.57
2022-07-28T02:11:10.836Z,1014.58
2022-07-28T02:12:10.843Z,1014.56
2022-07-28T02:13:10.855Z,1014.49
2022-07-28T02:14:11.124Z,1014.55
2022-07-28T02:15:10.864Z,1014.53
2022-07-28T02:16:10.940Z,1014.51
2022-07-28T02:17:10.875Z,1014.49
2022-07-28T02:18:10.849Z,1014.56
2022-07-28T02:19:10.848Z,1014.53
2022-07-28T02:20:10.856Z,1014.54
2022-07-28T02:21:10.854Z,1014.52
2022-07-28T02:22:10.869Z,1014.53
2022-07-28T02:23:10.855Z,1014.50
2022-07-28T02:24:11.267Z,1014.53
2022-07-28T02:25:10.850Z,1014.55
2022-07-28T02:26:10.860Z,1014.52
2022-07-28T02:27:10.890Z,1014.54
2022-07-28T02:28:10.870Z,1014.55
2022-07-28T02:29:27.381Z,1014.57
2022-07-28T02:30:10.859Z,1014.59
2022-07-28T02:31:10.899Z,1014.63
2022-07-28T02:32:10.902Z,1014.56
2022-07-28T02:33:11.323Z,1014.57
2022-07-28T02:34:10.930Z,1014.50
2022-07-28T02:35:10.862Z,1014.59
2022-07-28T02:36:10.882Z,1014.57
2022-07-28T02:37:10.880Z,1014.56
2022-07-28T02:38:10.870Z,1014.60
2022-07-28T02:39:10.878Z,1014.59
2022-07-28T02:40:10.878Z,1014.59
2022-07-28T02:41:10.876Z,1014.57
2022-07-28T02:42:10.883Z,1014.62
2022-07-28T02:43:10.882Z,1014.62
2022-07-28T02:44:11.208Z,1014.57
2022-07-28T02:45:10.877Z,1014.61
2022-07-28T02:46:10.928Z,1014.59
2022-07-28T02:47:10.883Z,1014.57
2022-07-28T02:48:10.888Z,1014.59
2022-07-28T02:49:10.953Z,1014.61
2022-07-28T02:50:10.888Z,1014.61
2022-07-28T02:51:10.883Z,1014.64
2022-07-28T02:52:10.890Z,1014.68
2022-07-28T02:53:15.456Z,1014.64
2022-07-28T02:54:11.247Z,1014.68
2022-07-28T02:55:10.909Z,1014.66
2022-07-28T02:56:10.888Z,1014.72
2022-07-28T02:57:10.885Z,1014.77
2022-07-28T02:58:10.892Z,1014.73
2022-07-28T02:59:10.897Z,1014.77
2022-07-28T03:00:10.917Z,1014.77
2022-07-28T03:01:10.926Z,1014.77
2022-07-28T03:02:10.914Z,1014.78
2022-07-28T03:03:10.932Z,1014.78
2022-07-28T03:04:11.159Z,1014.79
2022-07-28T03:05:11.380Z,1014.82
2022-07-28T03:06:10.909Z,1014.80
2022-07-28T03:07:11.306Z,1014.79
2022-07-28T03:08:10.896Z,1014.76
2022-07-28T03:09:10.922Z,1014.76
2022-07-28T03:10:10.899Z,1014.74
2022-07-28T03:11:10.903Z,1014.77
2022-07-28T03:12:10.899Z,1014.77
2022-07-28T03:13:10.918Z,1014.78
2022-07-28T03:14:11.184Z,1014.81
2022-07-28T03:15:10.908Z,1014.80
2022-07-28T03:16:10.926Z,1014.82
2022-07-28T03:17:10.964Z,1014.87
2022-07-28T03:18:10.918Z,1014.86
2022-07-28T03:19:10.923Z,1014.86
2022-07-28T03:20:10.942Z,1014.90
2022-07-28T03:21:10.923Z,1014.90
2022-07-28T03:22:10.913Z,1014.89
2022-07-28T03:23:10.915Z,1014.93
2022-07-28T03:24:11.243Z,1014.95
2022-07-28T03:25:10.920Z,1014.95
2022-07-28T03:26:10.941Z,1014.96
2022-07-28T03:27:10.942Z,1014.98
2022-07-28T03:28:10.941Z,1014.99
2022-07-28T03:29:10.954Z,1015.01
2022-07-28T03:30:10.935Z,1015.02
2022-07-28T03:31:11.056Z,1014.98
2022-07-28T03:32:10.943Z,1015.01
2022-07-28T03:33:10.920Z,1014.99
2022-07-28T03:34:11.425Z,1015.00
2022-07-28T03:35:10.927Z,1014.95
2022-07-28T03:36:10.940Z,1014.98
2022-07-28T03:37:10.936Z,1014.97
2022-07-28T03:38:10.925Z,1014.98
2022-07-28T03:39:10.941Z,1015.00
2022-07-28T03:40:10.938Z,1014.99
2022-07-28T03:41:10.929Z,1015.03
2022-07-28T03:42:10.941Z,1015.00
2022-07-28T03:43:10.947Z,1015.02
2022-07-28T03:44:11.255Z,1015.00
2022-07-28T03:45:10.949Z,1015.02
2022-07-28T03:46:13.354Z,1015.04
2022-07-28T03:47:10.951Z,1015.01
2022-07-28T03:48:10.944Z,1015.03
2022-07-28T03:49:10.973Z,1015.06
2022-07-28T03:50:10.942Z,1015.04
2022-07-28T03:51:10.967Z,1015.08
2022-07-28T03:52:10.969Z,1015.06
2022-07-28T03:53:10.943Z,1015.09
2022-07-28T03:54:11.257Z,1015.08
2022-07-28T03:55:10.954Z,1015.09
2022-07-28T03:56:10.953Z,1015.16
2022-07-28T03:57:10.954Z,1015.16
2022-07-28T03:58:10.960Z,1015.18
2022-07-28T03:59:10.945Z,1015.18
2022-07-28T04:00:10.955Z,1015.18
2022-07-28T04:01:11.080Z,1015.17
2022-07-28T04:02:11.071Z,1015.15
2022-07-28T04:03:36.699Z,1015.15
2022-07-28T04:04:11.173Z,1015.15
2022-07-28T04:05:10.950Z,1015.15
2022-07-28T04:06:10.966Z,1015.19
2022-07-28T04:07:10.953Z,1015.22
2022-07-28T04:08:10.976Z,1015.15
2022-07-28T04:09:10.970Z,1015.17
2022-07-28T04:10:10.957Z,1015.19
2022-07-28T04:11:10.965Z,1015.17
2022-07-28T04:12:10.978Z,1015.21
2022-07-28T04:13:11.012Z,1015.16
2022-07-28T04:14:16.200Z,1015.20
2022-07-28T04:15:10.972Z,1015.21
2022-07-28T04:16:10.969Z,1015.15
2022-07-28T04:17:11.013Z,1015.20
2022-07-28T04:18:10.981Z,1015.18
2022-07-28T04:19:10.978Z,1015.19
2022-07-28T04:20:10.964Z,1015.20
2022-07-28T04:21:10.965Z,1015.20
2022-07-28T04:22:10.967Z,1015.16
2022-07-28T04:23:10.979Z,1015.21
2022-07-28T04:24:10.987Z,1015.19
2022-07-28T04:25:10.975Z,1015.22
2022-07-28T04:26:10.966Z,1015.20
2022-07-28T04:27:10.981Z,1015.17
2022-07-28T04:28:10.980Z,1015.15
2022-07-28T04:29:11.011Z,1015.22
2022-07-28T04:30:10.970Z,1015.24
2022-07-28T04:31:11.056Z,1015.24
2022-07-28T04:32:10.985Z,1015.19
2022-07-28T04:33:10.981Z,1015.20
2022-07-28T04:34:11.313Z,1015.24
2022-07-28T04:35:14.105Z,1015.21
2022-07-28T04:36:10.982Z,1015.22
2022-07-28T04:37:10.979Z,1015.25
2022-07-28T04:38:11.002Z,1015.24
2022-07-28T04:39:10.990Z,1015.27
2022-07-28T04:40:10.999Z,1015.23
2022-07-28T04:41:11.007Z,1015.27
2022-07-28T04:42:10.996Z,1015.27
2022-07-28T04:43:10.981Z,1015.22
2022-07-28T04:44:11.200Z,1015.26
2022-07-28T04:45:10.986Z,1015.28
2022-07-28T04:46:14.948Z,1015.28
2022-07-28T04:47:10.997Z,1015.28
2022-07-28T04:48:10.987Z,1015.32
2022-07-28T04:49:11.080Z,1015.28
2022-07-28T04:50:10.991Z,1015.33
2022-07-28T04:51:11.012Z,1015.34
2022-07-28T04:52:11.005Z,1015.34
2022-07-28T04:53:10.990Z,1015.33
2022-07-28T04:54:11.360Z,1015.33
2022-07-28T04:55:10.999Z,1015.33
2022-07-28T04:56:11.002Z,1015.32
2022-07-28T04:57:12.760Z,1015.28
2022-07-28T04:58:11.005Z,1015.30
2022-07-28T04:59:11.001Z,1015.28
2022-07-28T05:00:11.003Z,1015.31
2022-07-28T05:01:11.057Z,1015.33
2022-07-28T05:02:11.015Z,1015.27
2022-07-28T05:03:11.017Z,1015.29
2022-07-28T05:04:11.297Z,1015.31
2022-07-28T05:05:11.124Z,1015.31
2022-07-28T05:06:11.016Z,1015.31
2022-07-28T05:07:12.735Z,1015.33
2022-07-28T05:08:11.044Z,1015.32
2022-07-28T05:09:11.014Z,1015.36
2022-07-28T05:10:11.031Z,1015.33
2022-07-28T05:11:11.016Z,1015.34
2022-07-28T05:12:11.018Z,1015.32
2022-07-28T05:13:11.038Z,1015.31
2022-07-28T05:14:12.589Z,1015.31
2022-07-28T05:15:11.005Z,1015.35
2022-07-28T05:16:11.032Z,1015.31
2022-07-28T05:17:11.018Z,1015.28
2022-07-28T05:18:11.018Z,1015.26
2022-07-28T05:19:11.036Z,1015.30
2022-07-28T05:20:11.019Z,1015.28
2022-07-28T05:21:11.012Z,1015.29
2022-07-28T05:22:11.016Z,1015.33
2022-07-28T05:23:11.031Z,1015.32
2022-07-28T05:24:11.309Z,1015.34
2022-07-28T05:25:11.024Z,1015.36
2022-07-28T05:26:11.030Z,1015.38
2022-07-28T05:27:11.019Z,1015.37
2022-07-28T05:28:11.021Z,1015.40
2022-07-28T05:29:11.020Z,1015.37
2022-07-28T05:30:11.040Z,1015.40
2022-07-28T05:31:11.064Z,1015.42
2022-07-28T05:32:17.198Z,1015.45
2022-07-28T05:33:11.036Z,1015.43
2022-07-28T05:34:11.200Z,1015.44
2022-07-28T05:35:11.052Z,1015.43
2022-07-28T05:36:11.048Z,1015.39
2022-07-28T05:37:11.056Z,1015.40
2022-07-28T05:38:11.326Z,1015.43
2022-07-28T05:39:11.051Z,1015.42
2022-07-28T05:40:11.056Z,1015.40
2022-07-28T05:41:11.075Z,1015.45
2022-07-28T05:42:11.058Z,1015.44
2022-07-28T05:43:11.049Z,1015.38
2022-07-28T05:44:11.311Z,1015.47
2022-07-28T05:45:15.098Z,1015.43
2022-07-28T05:46:11.210Z,1015.44
2022-07-28T05:47:11.082Z,1015.48
2022-07-28T05:48:11.051Z,1015.49
2022-07-28T05:49:11.156Z,1015.50
2022-07-28T05:50:11.057Z,1015.53
2022-07-28T05:51:11.075Z,1015.52
2022-07-28T05:52:11.057Z,1015.55
2022-07-28T05:53:11.080Z,1015.59
2022-07-28T05:54:11.417Z,1015.62
2022-07-28T05:55:11.074Z,1015.58
2022-07-28T05:56:11.066Z,1015.57
2022-07-28T05:57:11.087Z,1015.63
2022-07-28T05:58:11.066Z,1015.55
2022-07-28T05:59:11.101Z,1015.57
2022-07-28T06:00:11.093Z,1015.56
2022-07-28T06:01:11.144Z,1015.53
2022-07-28T06:02:11.161Z,1015.55
2022-07-28T06:03:11.077Z,1015.56
2022-07-28T06:04:27.208Z,1015.60
2022-07-28T06:05:11.111Z,1015.59
2022-07-28T06:06:15.784Z,1015.57
2022-07-28T06:07:11.094Z,1015.59
2022-07-28T06:08:11.095Z,1015.56
2022-07-28T06:09:11.089Z,1015.54
2022-07-28T06:10:11.094Z,1015.53
2022-07-28T06:11:11.091Z,1015.57
2022-07-28T06:12:11.109Z,1015.59
2022-07-28T06:13:11.094Z,1015.57
2022-07-28T06:14:11.443Z,1015.60
2022-07-28T06:15:11.097Z,1015.59
2022-07-28T06:16:13.316Z,1015.60
2022-07-28T06:17:11.120Z,1015.62
2022-07-28T06:18:11.100Z,1015.62
2022-07-28T06:19:11.116Z,1015.64
2022-07-28T06:20:11.118Z,1015.62
2022-07-28T06:21:11.119Z,1015.65
2022-07-28T06:22:11.124Z,1015.62
2022-07-28T06:23:11.130Z,1015.65
2022-07-28T06:24:11.413Z,1015.65
2022-07-28T06:25:11.127Z,1015.65
2022-07-28T06:26:11.131Z,1015.70
2022-07-28T06:27:11.127Z,1015.71
2022-07-28T06:28:11.138Z,1015.72
2022-07-28T06:29:11.137Z,1015.71
2022-07-28T06:30:11.137Z,1015.71
2022-07-28T06:31:11.181Z,1015.69
2022-07-28T06:32:11.182Z,1015.66
2022-07-28T06:33:15.368Z,1015.68
2022-07-28T06:34:11.529Z,1015.71
2022-07-28T06:35:11.139Z,1015.68
2022-07-28T06:36:11.141Z,1015.71
2022-07-28T06:37:11.152Z,1015.72
2022-07-28T06:38:11.155Z,1015.71
2022-07-28T06:39:11.145Z,1015.69
2022-07-28T06:40:11.170Z,1015.66
2022-07-28T06:41:11.150Z,1015.66
2022-07-28T06:42:11.165Z,1015.66
2022-07-28T06:43:11.157Z,1015.68
2022-07-28T06:44:12.397Z,1015.62
2022-07-28T06:45:21.325Z,1015.63
2022-07-28T06:46:11.162Z,1015.70
2022-07-28T06:47:11.199Z,1015.65
2022-07-28T06:48:11.205Z,1015.64
2022-07-28T06:49:11.469Z,1015.63
2022-07-28T06:50:25.309Z,1015.62
2022-07-28T06:51:11.181Z,1015.60
2022-07-28T06:52:11.192Z,1015.62
2022-07-28T06:53:11.239Z,1015.60
2022-07-28T06:54:11.688Z,1015.63
2022-07-28T06:55:11.202Z,1015.65
2022-07-28T06:56:13.873Z,1015.66
2022-07-28T06:57:11.203Z,1015.65
2022-07-28T06:58:11.197Z,1015.67
2022-07-28T06:59:11.451Z,1015.65
2022-07-28T07:00:11.202Z,1015.67
2022-07-28T07:01:11.317Z,1015.67
2022-07-28T07:02:11.218Z,1015.66
2022-07-28T07:03:11.210Z,1015.63
2022-07-28T07:04:11.675Z,1015.64
2022-07-28T07:05:11.233Z,1015.65
2022-07-28T07:06:11.454Z,1015.65
2022-07-28T07:07:14.949Z,1015.64
2022-07-28T07:08:11.237Z,1015.66
2022-07-28T07:09:11.255Z,1015.63
2022-07-28T07:10:11.226Z,1015.63
2022-07-28T07:11:11.232Z,1015.64
2022-07-28T07:12:11.238Z,1015.65
2022-07-28T07:13:11.256Z,1015.66
2022-07-28T07:14:11.277Z,1015.66
2022-07-28T07:15:11.254Z,1015.62
2022-07-28T07:16:11.294Z,1015.63
2022-07-28T07:17:11.261Z,1015.67
2022-07-28T07:18:11.252Z,1015.67
2022-07-28T07:19:15.636Z,1015.62
2022-07-28T07:20:11.283Z,1015.63
2022-07-28T07:21:11.279Z,1015.60
2022-07-28T07:22:11.283Z,1015.60
2022-07-28T07:23:11.276Z,1015.55
2022-07-28T07:24:11.700Z,1015.57
2022-07-28T07:25:11.276Z,1015.61
2022-07-28T07:26:11.305Z,1015.65
2022-07-28T07:27:11.283Z,1015.66
2022-07-28T07:28:11.316Z,1015.63
2022-07-28T07:29:11.290Z,1015.66
2022-07-28T07:30:11.292Z,1015.60
2022-07-28T07:31:11.355Z,1015.61
2022-07-28T07:32:11.335Z,1015.61
2022-07-28T07:33:11.335Z,1015.62
2022-07-28T07:34:11.651Z,1015.63
2022-07-28T07:35:11.313Z,1015.61
2022-07-28T07:36:11.320Z,1015.62
2022-07-28T07:37:11.347Z,1015.61
2022-07-28T07:38:11.331Z,1015.64
2022-07-28T07:39:11.335Z,1015.69
2022-07-28T07:40:11.335Z,1015.65
2022-07-28T07:41:11.368Z,1015.66
2022-07-28T07:42:11.330Z,1015.67
2022-07-28T07:43:11.396Z,1015.66
2022-07-28T07:44:11.714Z,1015.68
2022-07-28T07:45:11.352Z,1015.68
2022-07-28T07:46:11.422Z,1015.65
2022-07-28T07:47:11.346Z,1015.69
2022-07-28T07:48:11.366Z,1015.67
2022-07-28T07:49:11.431Z,1015.66
2022-07-28T07:50:11.376Z,1015.69
2022-07-28T07:51:15.483Z,1015.69
2022-07-28T07:52:11.364Z,1015.71
2022-07-28T07:53:11.379Z,1015.70
2022-07-28T07:54:11.668Z,1015.68
2022-07-28T07:55:11.402Z,1015.75
2022-07-28T07:56:11.388Z,1015.74
2022-07-28T07:57:11.385Z,1015.73
2022-07-28T07:58:11.413Z,1015.75
2022-07-28T07:59:11.396Z,1015.76
2022-07-28T08:00:28.578Z,1015.75
2022-07-28T08:01:11.399Z,1015.75
2022-07-28T08:02:11.505Z,1015.75
2022-07-28T08:03:11.587Z,1015.72
2022-07-28T08:04:11.675Z,1015.73
2022-07-28T08:05:11.481Z,1015.74
2022-07-28T08:06:11.420Z,1015.74
2022-07-28T08:07:11.433Z,1015.73
2022-07-28T08:08:11.447Z,1015.69
2022-07-28T08:09:11.426Z,1015.69
2022-07-28T08:10:11.432Z,1015.72
2022-07-28T08:11:11.465Z,1015.70
2022-07-28T08:12:11.436Z,1015.69
2022-07-28T08:13:11.441Z,1015.70
2022-07-28T08:14:11.687Z,1015.67
2022-07-28T08:15:11.461Z,1015.69
2022-07-28T08:16:11.624Z,1015.69
2022-07-28T08:17:11.481Z,1015.68
2022-07-28T08:18:11.466Z,1015.67
2022-07-28T08:19:11.645Z,1015.65
2022-07-28T08:20:11.480Z,1015.66
2022-07-28T08:21:11.497Z,1015.65
2022-07-28T08:22:11.498Z,1015.60
2022-07-28T08:23:11.482Z,1015.64
2022-07-28T08:24:11.733Z,1015.65
2022-07-28T08:25:11.518Z,1015.67
2022-07-28T08:26:11.507Z,1015.66
2022-07-28T08:27:11.497Z,1015.67
2022-07-28T08:28:11.500Z,1015.71
2022-07-28T08:29:11.502Z,1015.67
2022-07-28T08:30:11.523Z,1015.71
2022-07-28T08:31:11.608Z,1015.72
2022-07-28T08:32:11.518Z,1015.70
2022-07-28T08:33:11.536Z,1015.72
2022-07-28T08:34:31.044Z,1015.73
2022-07-28T08:35:32.458Z,1015.69
2022-07-28T08:36:11.533Z,1015.68
2022-07-28T08:37:11.552Z,1015.74
2022-07-28T08:38:11.544Z,1015.75
2022-07-28T08:39:11.604Z,1015.72
2022-07-28T08:40:11.549Z,1015.74
2022-07-28T08:41:11.555Z,1015.79
2022-07-28T08:42:11.578Z,1015.77
2022-07-28T08:43:11.583Z,1015.80
2022-07-28T08:44:11.795Z,1015.80
2022-07-28T08:45:11.580Z,1015.81
2022-07-28T08:46:11.653Z,1015.81
2022-07-28T08:47:11.616Z,1015.77
2022-07-28T08:48:11.594Z,1015.79
2022-07-28T08:49:12.195Z,1015.78
2022-07-28T08:50:11.589Z,1015.81
2022-07-28T08:51:11.603Z,1015.81
2022-07-28T08:52:11.612Z,1015.73
2022-07-28T08:53:11.619Z,1015.78
2022-07-28T08:54:12.038Z,1015.78
2022-07-28T08:55:15.112Z,1015.75
2022-07-28T08:56:11.631Z,1015.73
2022-07-28T08:57:11.634Z,1015.71
2022-07-28T08:58:11.639Z,1015.75
2022-07-28T08:59:11.635Z,1015.80
2022-07-28T09:00:11.667Z,1015.76
2022-07-28T09:01:11.644Z,1015.79
2022-07-28T09:02:11.730Z,1015.78
2022-07-28T09:03:11.723Z,1015.79
2022-07-28T09:04:11.915Z,1015.77
2022-07-28T09:05:11.697Z,1015.78
2022-07-28T09:06:11.667Z,1015.78
2022-07-28T09:07:11.680Z,1015.73
2022-07-28T09:08:11.687Z,1015.70
2022-07-28T09:09:11.699Z,1015.76
2022-07-28T09:10:11.699Z,1015.73
2022-07-28T09:11:11.709Z,1015.74
2022-07-28T09:12:11.694Z,1015.79
2022-07-28T09:13:13.325Z,1015.76
2022-07-28T09:14:11.951Z,1015.77
2022-07-28T09:15:11.719Z,1015.73
2022-07-28T09:16:11.815Z,1015.77
2022-07-28T09:17:11.725Z,1015.77
2022-07-28T09:18:11.741Z,1015.76
2022-07-28T09:19:11.729Z,1015.78
2022-07-28T09:20:11.881Z,1015.77
2022-07-28T09:21:11.765Z,1015.77
2022-07-28T09:22:11.752Z,1015.75
2022-07-28T09:23:42.565Z,1015.75
2022-07-28T09:24:11.905Z,1015.75
2022-07-28T09:25:11.775Z,1015.78
2022-07-28T09:26:12.533Z,1015.72
2022-07-28T09:27:11.807Z,1015.75
2022-07-28T09:28:11.783Z,1015.76
2022-07-28T09:29:11.787Z,1015.76
2022-07-28T09:30:11.805Z,1015.76
2022-07-28T09:31:11.843Z,1015.76
2022-07-28T09:32:11.814Z,1015.72
2022-07-28T09:33:11.795Z,1015.79
2022-07-28T09:34:12.164Z,1015.77
2022-07-28T09:35:11.807Z,1015.76
2022-07-28T09:36:11.826Z,1015.73
2022-07-28T09:37:11.829Z,1015.75
2022-07-28T09:38:11.825Z,1015.78
2022-07-28T09:39:11.835Z,1015.68
2022-07-28T09:40:11.877Z,1015.67
2022-07-28T09:41:11.871Z,1015.66
2022-07-28T09:42:11.864Z,1015.71
2022-07-28T09:43:11.855Z,1015.66
2022-07-28T09:44:12.138Z,1015.72
2022-07-28T09:45:25.773Z,1015.70
2022-07-28T09:46:12.046Z,1015.74
2022-07-28T09:47:12.097Z,1015.75
2022-07-28T09:48:12.082Z,1015.79
2022-07-28T09:49:11.970Z,1015.80
2022-07-28T09:50:11.879Z,1015.78
2022-07-28T09:51:11.896Z,1015.76
2022-07-28T09:52:11.904Z,1015.74
2022-07-28T09:53:11.910Z,1015.80
2022-07-28T09:54:12.277Z,1015.73
2022-07-28T09:55:11.924Z,1015.72
2022-07-28T09:56:11.919Z,1015.72
2022-07-28T09:57:11.939Z,1015.78
2022-07-28T09:58:11.923Z,1015.75
2022-07-28T09:59:12.859Z,1015.75
2022-07-28T10:00:11.959Z,1015.74
2022-07-28T10:01:12.316Z,1015.76
2022-07-28T10:02:12.156Z,1015.75
2022-07-28T10:03:11.992Z,1015.75
2022-07-28T10:04:11.955Z,1015.73
2022-07-28T10:05:11.964Z,1015.71
2022-07-28T10:06:11.974Z,1015.70
2022-07-28T10:07:11.995Z,1015.68
2022-07-28T10:08:11.989Z,1015.70
2022-07-28T10:09:11.991Z,1015.70
2022-07-28T10:10:11.995Z,1015.70
2022-07-28T10:11:12.012Z,1015.67
2022-07-28T10:12:12.003Z,1015.65
2022-07-28T10:13:12.044Z,1015.62
2022-07-28T10:14:12.265Z,1015.60
2022-07-28T10:15:12.008Z,1015.62
2022-07-28T10:16:12.052Z,1015.59
2022-07-28T10:17:12.020Z,1015.63
2022-07-28T10:18:12.056Z,1015.61
2022-07-28T10:19:12.041Z,1015.61
2022-07-28T10:20:12.043Z,1015.61
2022-07-28T10:21:12.050Z,1015.56
2022-07-28T10:22:12.051Z,1015.56
2022-07-28T10:23:12.072Z,1015.50
2022-07-28T10:24:12.493Z,1015.54
2022-07-28T10:25:12.059Z,1015.52
2022-07-28T10:26:13.326Z,1015.53
2022-07-28T10:27:12.066Z,1015.59
2022-07-28T10:28:12.082Z,1015.61
2022-07-28T10:29:12.090Z,1015.59
2022-07-28T10:30:12.098Z,1015.61
2022-07-28T10:31:12.212Z,1015.61
2022-07-28T10:32:12.095Z,1015.59
2022-07-28T10:33:12.097Z,1015.51
2022-07-28T10:34:16.167Z,1015.56
2022-07-28T10:35:12.120Z,1015.58
2022-07-28T10:36:12.118Z,1015.56
2022-07-28T10:37:12.130Z,1015.59
2022-07-28T10:38:12.713Z,1015.58
2022-07-28T10:39:12.139Z,1015.55
2022-07-28T10:40:12.147Z,1015.54
2022-07-28T10:41:12.150Z,1015.51
2022-07-28T10:42:12.155Z,1015.50
2022-07-28T10:43:12.178Z,1015.43
2022-07-28T10:44:12.537Z,1015.47
2022-07-28T10:45:12.207Z,1015.42
2022-07-28T10:46:16.063Z,1015.53
2022-07-28T10:47:18.146Z,1015.50
2022-07-28T10:48:12.195Z,1015.55
2022-07-28T10:49:12.352Z,1015.61
2022-07-28T10:50:12.199Z,1015.63
2022-07-28T10:51:12.211Z,1015.62
2022-07-28T10:52:30.883Z,1015.66
2022-07-28T10:53:12.230Z,1015.68
2022-07-28T10:54:12.566Z,1015.69
2022-07-28T10:55:12.254Z,1015.70
2022-07-28T10:56:12.270Z,1015.70
2022-07-28T10:57:12.258Z,1015.72
2022-07-28T10:58:12.530Z,1015.73
2022-07-28T10:59:12.282Z,1015.70
2022-07-28T11:00:13.634Z,1015.61
2022-07-28T11:01:26.749Z,1015.71
2022-07-28T11:02:12.493Z,1015.72
2022-07-28T11:03:13.768Z,1015.73
2022-07-28T11:04:12.699Z,1015.77
2022-07-28T11:05:12.366Z,1015.74
2022-07-28T11:06:12.367Z,1015.76
2022-07-28T11:07:12.410Z,1015.80
2022-07-28T11:08:12.401Z,1015.81
2022-07-28T11:09:12.419Z,1015.77
2022-07-28T11:10:12.454Z,1015.80
2022-07-28T11:11:12.443Z,1015.76
2022-07-28T11:12:12.467Z,1015.75
2022-07-28T11:13:14.408Z,1015.70
2022-07-28T11:14:12.775Z,1015.60
2022-07-28T11:15:15.736Z,1015.75
2022-07-28T11:16:12.520Z,1015.74
2022-07-28T11:17:12.597Z,1015.45
2022-07-28T11:18:12.571Z,1015.50
2022-07-28T11:19:36.529Z,1015.52
2022-07-28T11:20:16.794Z,1015.45
2022-07-28T11:21:16.552Z,1015.52
2022-07-28T11:22:12.631Z,1015.43
2022-07-28T11:23:12.647Z,1015.50
2022-07-28T11:24:13.128Z,1015.78
2022-07-28T11:25:20.701Z,1015.77
2022-07-28T11:26:12.694Z,1015.68
2022-07-28T11:27:12.696Z,1015.59
2022-07-28T11:28:12.719Z,1015.62
2022-07-28T11:29:12.740Z,1015.75
2022-07-28T11:30:12.849Z,1015.74
2022-07-28T11:31:12.803Z,1015.73
2022-07-28T11:32:12.856Z,1015.73
2022-07-28T11:33:12.784Z,1015.71
2022-07-28T11:34:13.116Z,1015.51
2022-07-28T11:35:12.828Z,1015.49
2022-07-28T11:36:12.885Z,1015.49
2022-07-28T11:37:14.879Z,1015.54
2022-07-28T11:38:12.871Z,1015.50
2022-07-28T11:39:12.894Z,1015.58
2022-07-28T11:40:12.948Z,1015.54
2022-07-28T11:41:12.913Z,1015.33
2022-07-28T11:42:12.919Z,1015.34
2022-07-28T11:43:12.927Z,1015.38
2022-07-28T11:44:13.194Z,1015.42
2022-07-28T11:45:12.950Z,1015.39
2022-07-28T11:46:13.026Z,1015.38
2022-07-28T11:47:12.974Z,1015.38
2022-07-28T11:48:12.983Z,1015.33
2022-07-28T11:49:14.700Z,1015.30
2022-07-28T11:50:13.142Z,1015.31
2022-07-28T11:51:13.028Z,1015.29
2022-07-28T11:52:13.059Z,1015.28
2022-07-28T11:53:13.047Z,1015.28
2022-07-28T11:54:13.350Z,1015.32
2022-07-28T11:55:13.070Z,1015.28
2022-07-28T11:56:13.077Z,1015.27
2022-07-28T11:57:13.792Z,1015.29
2022-07-28T11:58:13.116Z,1015.31
2022-07-28T11:59:13.133Z,1015.29
2022-07-28T12:00:13.129Z,1015.24
2022-07-28T12:01:13.431Z,1015.21
2022-07-28T12:02:13.184Z,1015.21
2022-07-28T12:03:13.151Z,1015.22
2022-07-28T12:04:13.952Z,1015.22
2022-07-28T12:05:13.286Z,1015.21
2022-07-28T12:06:13.182Z,1015.28
2022-07-28T12:07:13.209Z,1015.18